createdAt,value
2023-11-07T00:00:11.195Z,0.90
2023-11-07T00:02:38.976Z,0.95
2023-11-07T00:05:10.190Z,1.00
2023-11-07T00:07:39.248Z,1.10
2023-11-07T00:10:08.191Z,0.70
2023-11-07T00:12:35.888Z,0.95
2023-11-07T00:15:04.163Z,1.10
2023-11-07T00:17:31.882Z,1.00
2023-11-07T00:19:59.550Z,1.08
2023-11-07T00:22:27.488Z,1.15
2023-11-07T00:24:56.362Z,0.93
2023-11-07T00:27:24.250Z,1.00
2023-11-07T00:29:51.780Z,1.20
2023-11-07T00:32:19.290Z,0.93
2023-11-07T00:34:46.813Z,0.90
2023-11-07T00:37:14.350Z,1.25
2023-11-07T00:39:41.877Z,1.20
2023-11-07T00:42:10.883Z,1.10
2023-11-07T00:44:38.431Z,0.75
2023-11-07T00:47:06.557Z,0.80
2023-11-07T00:49:34.057Z,0.90
2023-11-07T00:52:01.725Z,0.98
2023-11-07T00:54:29.357Z,1.23
2023-11-07T00:56:56.934Z,1.27
2023-11-07T00:59:25.848Z,1.00
2023-11-07T01:01:53.373Z,1.33
2023-11-07T01:04:21.038Z,1.20
2023-11-07T01:06:48.770Z,1.10
2023-11-07T01:09:17.744Z,1.35
2023-11-07T01:11:45.325Z,1.10
2023-11-07T01:14:12.846Z,1.10
2023-11-07T01:16:41.657Z,0.93
2023-11-07T01:19:09.359Z,1.00
2023-11-07T01:21:36.883Z,1.08
2023-11-07T01:24:05.293Z,1.08
2023-11-07T01:26:33.013Z,1.00
2023-11-07T01:29:00.525Z,0.85
2023-11-07T01:31:28.031Z,1.38
2023-11-07T01:33:57.282Z,0.90
2023-11-07T01:36:24.782Z,0.80
2023-11-07T01:38:54.520Z,0.80
2023-11-07T01:41:22.364Z,0.80
2023-11-07T01:43:49.872Z,1.00
2023-11-07T01:46:17.735Z,0.88
2023-11-07T01:48:45.390Z,1.10
2023-11-07T01:51:15.515Z,1.30
2023-11-07T01:53:43.365Z,0.93
2023-11-07T01:56:10.856Z,0.90
2023-11-07T01:58:38.391Z,0.90
2023-11-07T02:01:06.376Z,1.10
2023-11-07T02:03:34.692Z,0.98
2023-11-07T02:06:03.198Z,0.73
2023-11-07T02:08:32.323Z,0.98
2023-11-07T02:10:59.863Z,1.00
2023-11-07T02:13:27.389Z,1.00
2023-11-07T02:15:56.507Z,1.15
2023-11-07T02:18:24.083Z,1.02
2023-11-07T02:20:52.937Z,1.00
2023-11-07T02:23:29.741Z,0.90
2023-11-07T02:25:57.462Z,1.13
2023-11-07T02:28:25.374Z,1.00
2023-11-07T02:30:53.048Z,1.08
2023-11-07T02:33:21.927Z,0.95
2023-11-07T02:35:49.856Z,0.98
2023-11-07T02:38:20.593Z,1.00
2023-11-07T02:40:50.334Z,1.20
2023-11-07T02:43:17.941Z,0.90
2023-11-07T02:45:46.223Z,1.05
2023-11-07T02:48:14.090Z,0.85
2023-11-07T02:50:41.748Z,0.90
2023-11-07T02:53:09.374Z,0.93
2023-11-07T02:55:37.033Z,1.02
2023-11-07T02:58:06.545Z,1.02
2023-11-07T03:00:34.330Z,1.10
2023-11-07T03:03:01.941Z,1.00
2023-11-07T03:05:29.622Z,1.10
2023-11-07T03:07:57.496Z,1.00
2023-11-07T03:10:24.981Z,1.25
2023-11-07T03:12:52.524Z,0.85
2023-11-07T03:15:21.384Z,1.10
2023-11-07T03:17:49.041Z,0.98
2023-11-07T03:20:17.893Z,1.05
2023-11-07T03:22:45.455Z,1.08
2023-11-07T03:25:12.964Z,1.10
2023-11-07T03:27:40.489Z,1.40
2023-11-07T03:30:09.002Z,1.13
2023-11-07T03:32:38.312Z,0.85
2023-11-07T03:35:06.651Z,1.30
2023-11-07T03:37:34.150Z,1.15
2023-11-07T03:40:01.725Z,1.10
2023-11-07T03:42:29.280Z,0.80
2023-11-07T03:44:56.854Z,1.10
2023-11-07T03:47:24.442Z,1.20
2023-11-07T03:49:53.910Z,1.00
2023-11-07T03:52:21.420Z,0.85
2023-11-07T03:54:49.182Z,1.10
2023-11-07T03:57:16.681Z,1.10
2023-11-07T03:59:46.339Z,1.10
2023-11-07T04:02:14.094Z,0.90
2023-11-07T04:04:41.625Z,0.85
2023-11-07T04:07:10.491Z,1.05
2023-11-07T04:09:38.119Z,1.13
2023-11-07T04:12:06.263Z,1.63
2023-11-07T04:14:34.495Z,1.23
2023-11-07T04:17:05.789Z,1.48
2023-11-07T04:19:34.807Z,0.90
2023-11-07T04:22:05.203Z,1.13
2023-11-07T04:24:34.117Z,1.15
2023-11-07T04:27:01.675Z,1.30
2023-11-07T04:29:29.256Z,0.98
2023-11-07T04:31:56.732Z,0.90
2023-11-07T04:34:24.365Z,1.02
2023-11-07T04:36:53.163Z,0.95
2023-11-07T04:39:20.693Z,1.38
2023-11-07T04:41:49.744Z,0.80
2023-11-07T04:44:17.325Z,1.00
2023-11-07T04:46:45.135Z,1.42
2023-11-07T04:49:15.127Z,1.15
2023-11-07T04:51:42.894Z,1.27
2023-11-07T04:54:10.498Z,1.15
2023-11-07T04:56:38.153Z,1.00
2023-11-07T04:59:07.071Z,1.30
2023-11-07T05:01:34.588Z,1.10
2023-11-07T05:04:03.469Z,1.05
2023-11-07T05:06:31.913Z,0.90
2023-11-07T05:09:01.538Z,1.08
2023-11-07T05:11:29.325Z,0.90
2023-11-07T05:13:56.856Z,1.23
2023-11-07T05:16:25.820Z,1.10
2023-11-07T05:18:53.680Z,0.90
2023-11-07T05:21:21.334Z,1.20
2023-11-07T05:23:48.838Z,1.30
2023-11-07T05:26:16.381Z,1.63
2023-11-07T05:28:44.377Z,1.20
2023-11-07T05:31:12.260Z,1.40
2023-11-07T05:33:42.582Z,1.15
2023-11-07T05:36:10.867Z,1.10
2023-11-07T05:38:38.567Z,1.20
2023-11-07T05:41:06.762Z,1.40
2023-11-07T05:43:34.530Z,1.25
2023-11-07T05:46:02.046Z,1.48
2023-11-07T05:48:29.702Z,1.80
2023-11-07T05:50:59.889Z,1.65
2023-11-07T05:53:27.528Z,1.90
2023-11-07T05:55:55.021Z,1.88
2023-11-07T05:58:22.548Z,2.13
2023-11-07T06:00:50.592Z,2.35
2023-11-07T06:03:18.369Z,2.22
2023-11-07T06:05:46.559Z,2.28
2023-11-07T06:08:15.754Z,2.35
2023-11-07T06:10:44.397Z,2.20
2023-11-07T06:13:11.952Z,2.30
2023-11-07T06:15:39.904Z,2.50
2023-11-07T06:18:07.902Z,2.22
2023-11-07T06:20:35.501Z,2.13
2023-11-07T06:23:03.125Z,2.20
2023-11-07T06:25:33.058Z,2.72
2023-11-07T06:28:00.587Z,2.35
2023-11-07T06:30:31.101Z,2.15
2023-11-07T06:32:59.400Z,2.30
2023-11-07T06:35:27.720Z,2.40
2023-11-07T06:37:55.383Z,2.47
2023-11-07T06:40:24.832Z,2.05
2023-11-07T06:42:54.145Z,1.92
2023-11-07T06:45:21.731Z,2.05
2023-11-07T06:47:49.460Z,1.83
2023-11-07T06:50:17.550Z,1.48
2023-11-07T06:52:50.242Z,1.80
2023-11-07T06:55:22.618Z,1.70
2023-11-07T06:57:55.216Z,1.50
2023-11-07T07:00:26.796Z,1.38
2023-11-07T07:02:56.768Z,1.02
2023-11-07T07:05:25.329Z,1.15
2023-11-07T07:07:53.019Z,1.33
2023-11-07T07:10:20.554Z,0.88
2023-11-07T07:12:49.010Z,1.10
2023-11-07T07:15:17.989Z,0.90
2023-11-07T07:17:45.646Z,1.20
2023-11-07T07:20:14.027Z,1.40
2023-11-07T07:22:42.731Z,1.23
2023-11-07T07:25:16.692Z,1.15
2023-11-07T07:27:47.252Z,1.17
2023-11-07T07:30:22.468Z,1.25
2023-11-07T07:32:52.961Z,1.17
2023-11-07T07:35:22.419Z,1.00
2023-11-07T07:37:52.958Z,1.20
2023-11-07T07:40:25.494Z,1.42
2023-11-07T07:42:54.407Z,1.30
2023-11-07T07:45:22.575Z,1.08
2023-11-07T07:47:50.587Z,1.25
2023-11-07T07:50:20.341Z,0.90
2023-11-07T07:52:49.674Z,1.20
2023-11-07T07:55:31.579Z,1.10
2023-11-07T07:58:02.288Z,1.25
2023-11-07T08:00:32.534Z,1.30
2023-11-07T08:03:06.582Z,0.80
2023-11-07T08:05:41.156Z,1.10
2023-11-07T08:08:10.599Z,1.20
2023-11-07T08:10:39.242Z,1.30
2023-11-07T08:13:08.759Z,1.10
2023-11-07T08:15:37.289Z,0.85
2023-11-07T08:18:08.160Z,0.90
2023-11-07T08:20:39.584Z,1.20
2023-11-07T08:23:07.496Z,1.20
2023-11-07T08:25:36.004Z,0.80
2023-11-07T08:28:08.296Z,0.90
2023-11-07T08:30:38.802Z,1.00
2023-11-07T08:33:08.359Z,1.00
2023-11-07T08:35:39.208Z,1.00
2023-11-07T08:38:06.971Z,1.20
2023-11-07T08:40:36.264Z,1.00
2023-11-07T08:43:04.419Z,0.90
2023-11-07T08:45:33.808Z,1.00
2023-11-07T08:48:01.957Z,1.00
2023-11-07T08:50:29.748Z,0.85
2023-11-07T08:52:59.024Z,0.82
2023-11-07T08:55:27.185Z,1.30
2023-11-07T08:57:55.121Z,0.98
2023-11-07T09:00:24.225Z,1.25
2023-11-07T09:02:54.003Z,0.90
2023-11-07T09:05:23.075Z,1.02
2023-11-07T09:07:51.157Z,0.80
2023-11-07T09:10:21.521Z,0.98
2023-11-07T09:12:49.248Z,1.00
2023-11-07T09:15:21.099Z,1.00
2023-11-07T09:17:49.322Z,1.20
2023-11-07T09:20:17.009Z,0.90
2023-11-07T09:22:45.062Z,0.90
2023-11-07T09:25:13.532Z,1.05
2023-11-07T09:27:42.483Z,0.90
2023-11-07T09:30:12.610Z,1.13
2023-11-07T09:32:43.206Z,1.20
2023-11-07T09:35:11.146Z,1.20
2023-11-07T09:37:41.411Z,0.98
2023-11-07T09:40:11.687Z,0.88
2023-11-07T09:42:40.041Z,0.95
2023-11-07T09:45:12.051Z,1.15
2023-11-07T09:47:41.037Z,1.08
2023-11-07T09:50:09.761Z,1.13
2023-11-07T09:52:37.632Z,1.15
2023-11-07T09:55:09.950Z,1.02
2023-11-07T09:57:41.789Z,1.30
2023-11-07T10:00:12.125Z,1.05
2023-11-07T10:02:41.529Z,1.00
2023-11-07T10:05:10.834Z,1.00
2023-11-07T10:07:39.728Z,1.27
2023-11-07T10:10:11.659Z,1.15
2023-11-07T10:12:44.994Z,1.25
2023-11-07T10:15:18.350Z,1.05
2023-11-07T10:18:00.040Z,0.88
2023-11-07T10:20:29.124Z,1.00
2023-11-07T10:22:56.635Z,0.90
2023-11-07T10:25:28.627Z,1.15
2023-11-07T10:27:56.571Z,1.10
2023-11-07T10:30:35.721Z,1.00
2023-11-07T10:33:04.897Z,1.00
2023-11-07T10:35:47.704Z,0.95
2023-11-07T10:38:15.941Z,1.45
2023-11-07T10:40:43.985Z,1.15
2023-11-07T10:43:11.583Z,1.40
2023-11-07T10:45:42.614Z,1.20
2023-11-07T10:48:10.714Z,1.17
2023-11-07T10:50:39.622Z,1.20
2023-11-07T10:53:07.362Z,0.90
2023-11-07T10:55:35.715Z,1.38
2023-11-07T10:58:06.493Z,1.30
2023-11-07T11:00:35.482Z,1.20
2023-11-07T11:03:06.713Z,1.00
2023-11-07T11:05:36.315Z,1.23
2023-11-07T11:08:05.355Z,1.52
2023-11-07T11:10:35.474Z,1.40
2023-11-07T11:13:03.545Z,0.80
2023-11-07T11:15:33.034Z,0.95
2023-11-07T11:18:06.853Z,0.73
2023-11-07T11:20:42.168Z,1.15
2023-11-07T11:23:17.265Z,1.05
2023-11-07T11:25:56.584Z,1.08
2023-11-07T11:28:38.458Z,1.10
2023-11-07T11:31:05.978Z,0.85
2023-11-07T11:33:37.449Z,1.13
2023-11-07T11:36:36.266Z,0.90
2023-11-07T11:39:06.650Z,1.02
2023-11-07T11:41:57.504Z,1.05
2023-11-07T11:44:25.931Z,1.20
2023-11-07T11:46:53.952Z,1.27
2023-11-07T11:49:24.351Z,0.80
2023-11-07T11:51:52.826Z,1.10
2023-11-07T11:54:53.881Z,1.30
2023-11-07T11:57:23.309Z,1.02
2023-11-07T11:59:56.273Z,1.30
2023-11-07T12:02:40.841Z,1.17
2023-11-07T12:05:18.390Z,1.30
2023-11-07T12:07:47.127Z,1.20
2023-11-07T12:10:15.800Z,1.30
2023-11-07T12:12:44.342Z,0.93
2023-11-07T12:15:15.027Z,0.98
2023-11-07T12:17:47.464Z,1.10
2023-11-07T12:20:19.074Z,1.10
2023-11-07T12:22:48.159Z,1.08
2023-11-07T12:25:18.292Z,1.20
2023-11-07T12:27:47.414Z,1.10
2023-11-07T12:30:17.433Z,1.00
2023-11-07T12:32:46.164Z,1.13
2023-11-07T12:35:22.423Z,0.85
2023-11-07T12:37:50.929Z,0.75
2023-11-07T12:40:19.579Z,0.90
2023-11-07T12:42:54.507Z,1.05
2023-11-07T12:45:23.832Z,1.00
2023-11-07T12:48:01.582Z,0.88
2023-11-07T12:50:36.673Z,0.93
2023-11-07T12:53:07.544Z,0.82
2023-11-07T12:55:37.172Z,0.80
2023-11-07T12:58:05.766Z,0.75
2023-11-07T13:00:58.230Z,0.93
2023-11-07T13:03:27.150Z,0.65
2023-11-07T13:05:59.728Z,0.82
2023-11-07T13:08:28.823Z,0.75
2023-11-07T13:11:08.884Z,0.65
2023-11-07T13:13:36.922Z,0.90
2023-11-07T13:16:08.729Z,0.70
2023-11-07T13:21:10.050Z,0.85
2023-11-07T13:26:08.423Z,1.20
2023-11-07T13:28:37.807Z,0.90
2023-11-07T13:31:06.983Z,1.10
2023-11-07T13:33:34.933Z,0.68
2023-11-07T13:36:02.855Z,1.00
2023-11-07T13:38:30.596Z,0.90
2023-11-07T13:40:58.296Z,1.85
2023-11-07T13:43:25.949Z,0.80
2023-11-07T13:45:55.104Z,1.02
2023-11-07T13:48:25.556Z,0.77
2023-11-07T13:50:53.311Z,1.15
2023-11-07T13:53:20.973Z,0.93
2023-11-07T13:55:48.568Z,0.73
2023-11-07T13:58:16.257Z,0.93
2023-11-07T14:00:43.917Z,0.75
2023-11-07T14:03:12.059Z,0.73
2023-11-07T14:05:41.103Z,0.60
2023-11-07T14:08:08.783Z,0.90
2023-11-07T14:10:38.291Z,0.70
2023-11-07T14:13:05.984Z,0.70
2023-11-07T14:15:34.256Z,0.93
2023-11-07T14:18:08.125Z,1.00
2023-11-07T14:20:41.565Z,1.23
2023-11-07T14:23:10.670Z,0.70
2023-11-07T14:25:38.366Z,0.95
2023-11-07T14:28:10.022Z,0.80
2023-11-07T14:30:44.784Z,0.85
2023-11-07T14:33:13.102Z,1.13
2023-11-07T14:35:42.053Z,1.17
2023-11-07T14:38:10.587Z,0.98
2023-11-07T14:40:39.675Z,0.90
2023-11-07T14:43:14.527Z,0.90
2023-11-07T14:45:45.312Z,0.88
2023-11-07T14:48:15.676Z,0.80
2023-11-07T14:50:45.105Z,1.15
2023-11-07T14:53:16.113Z,0.98
2023-11-07T14:55:44.317Z,1.20
2023-11-07T14:58:12.011Z,0.60
2023-11-07T15:00:42.286Z,0.90
2023-11-07T15:03:12.379Z,0.85
2023-11-07T15:05:43.250Z,0.63
2023-11-07T15:08:13.111Z,0.85
2023-11-07T15:10:40.644Z,0.98
2023-11-07T15:13:09.023Z,1.55
2023-11-07T15:15:37.605Z,1.13
2023-11-07T15:18:06.548Z,0.73
2023-11-07T15:20:34.385Z,0.90
2023-11-07T15:23:03.471Z,0.80
2023-11-07T15:25:35.096Z,0.70
2023-11-07T15:28:04.538Z,0.90
2023-11-07T15:30:32.954Z,0.82
2023-11-07T15:33:02.696Z,1.00
2023-11-07T15:35:39.817Z,0.90
2023-11-07T15:38:08.431Z,1.30
2023-11-07T15:40:40.905Z,0.93
2023-11-07T15:43:09.665Z,1.05
2023-11-07T15:45:37.892Z,0.90
2023-11-07T15:48:09.527Z,1.15
2023-11-07T15:50:40.404Z,0.90
2023-11-07T15:53:10.069Z,1.20
2023-11-07T15:55:42.628Z,1.13
2023-11-07T15:58:11.307Z,1.40
2023-11-07T16:00:39.278Z,1.08
2023-11-07T16:03:07.463Z,1.10
2023-11-07T16:05:36.852Z,1.42
2023-11-07T16:08:06.065Z,1.23
2023-11-07T16:10:34.430Z,1.13
2023-11-07T16:13:04.820Z,1.10
2023-11-07T16:15:33.968Z,1.00
2023-11-07T16:18:02.116Z,1.02
2023-11-07T16:20:29.784Z,1.30
2023-11-07T16:22:57.803Z,1.10
2023-11-07T16:25:25.885Z,1.80
2023-11-07T16:27:54.298Z,1.30
2023-11-07T16:30:23.494Z,1.17
2023-11-07T16:32:52.065Z,1.20
2023-11-07T16:35:20.048Z,1.38
2023-11-07T16:37:47.583Z,1.20
2023-11-07T16:40:17.827Z,1.67
2023-11-07T16:42:46.368Z,1.65
2023-11-07T16:45:16.126Z,1.10
2023-11-07T16:47:45.926Z,1.20
2023-11-07T16:50:14.057Z,1.45
2023-11-07T16:52:42.021Z,1.42
2023-11-07T16:55:14.897Z,1.60
2023-11-07T16:57:43.652Z,1.33
2023-11-07T17:00:12.784Z,1.35
2023-11-07T17:02:40.464Z,1.45
2023-11-07T17:05:10.222Z,1.30
2023-11-07T17:07:38.011Z,1.48
2023-11-07T17:10:08.282Z,1.23
2023-11-07T17:12:36.622Z,1.10
2023-11-07T17:15:04.647Z,1.10
2023-11-07T17:17:32.306Z,1.63
2023-11-07T17:19:59.960Z,1.13
2023-11-07T17:22:28.953Z,1.55
2023-11-07T17:24:56.526Z,1.27
2023-11-07T17:27:24.938Z,1.42
2023-11-07T17:29:52.517Z,1.55
2023-11-07T17:32:20.670Z,1.33
2023-11-07T17:34:48.299Z,1.35
2023-11-07T17:37:15.842Z,1.45
2023-11-07T17:39:44.921Z,1.40
2023-11-07T17:42:13.998Z,1.23
2023-11-07T17:44:42.645Z,1.20
2023-11-07T17:47:12.447Z,1.00
2023-11-07T17:49:40.026Z,1.10
2023-11-07T17:52:07.882Z,0.85
2023-11-07T17:54:36.368Z,1.25
2023-11-07T17:57:05.674Z,1.20
2023-11-07T17:59:33.299Z,1.20
2023-11-07T18:02:00.869Z,1.02
2023-11-07T18:04:28.555Z,1.02
2023-11-07T18:06:56.635Z,1.27
2023-11-07T18:09:24.258Z,1.35
2023-11-07T18:11:52.843Z,1.05
2023-11-07T18:14:23.407Z,1.20
2023-11-07T18:16:50.980Z,1.33
2023-11-07T18:19:18.602Z,1.20
2023-11-07T18:21:47.557Z,1.10
2023-11-07T18:24:15.162Z,0.80
2023-11-07T18:26:47.491Z,1.00
2023-11-07T18:29:15.587Z,1.30
2023-11-07T18:31:44.924Z,1.50
2023-11-07T18:34:20.950Z,1.23
2023-11-07T18:37:01.795Z,1.30
2023-11-07T18:39:30.617Z,1.10
2023-11-07T18:41:59.001Z,1.20
2023-11-07T18:44:32.082Z,1.52
2023-11-07T18:47:01.746Z,1.30
2023-11-07T18:49:30.153Z,1.60
2023-11-07T18:51:57.844Z,1.40
2023-11-07T18:54:26.000Z,1.42
2023-11-07T18:56:54.452Z,1.40
2023-11-07T18:59:31.608Z,1.55
2023-11-07T19:02:06.568Z,1.50
2023-11-07T19:04:34.904Z,1.10
2023-11-07T19:07:03.434Z,1.65
2023-11-07T19:09:32.613Z,1.48
2023-11-07T19:12:02.994Z,1.70
2023-11-07T19:14:31.132Z,2.03
2023-11-07T19:16:59.456Z,1.60
2023-11-07T19:19:29.520Z,2.25
2023-11-07T19:21:58.765Z,1.38
2023-11-07T19:24:26.928Z,1.55
2023-11-07T19:26:54.587Z,1.65
2023-11-07T19:29:22.260Z,1.63
2023-11-07T19:31:50.573Z,1.95
2023-11-07T19:34:20.865Z,1.73
2023-11-07T19:36:51.788Z,1.73
2023-11-07T19:39:21.907Z,1.70
2023-11-07T19:41:49.798Z,1.92
2023-11-07T19:44:17.315Z,2.28
2023-11-07T19:46:45.053Z,3.55
2023-11-07T19:49:12.752Z,2.60
2023-11-07T19:51:41.185Z,2.13
2023-11-07T19:54:12.019Z,2.10
2023-11-07T19:56:41.852Z,2.40
2023-11-07T19:59:12.313Z,2.88
2023-11-07T20:01:40.332Z,2.67
2023-11-07T20:04:09.274Z,2.05
2023-11-07T20:06:37.161Z,2.10
2023-11-07T20:09:04.853Z,1.73
2023-11-07T20:11:36.232Z,1.70
2023-11-07T20:14:04.135Z,1.40
2023-11-07T20:16:31.811Z,2.10
2023-11-07T20:18:59.467Z,1.77
2023-11-07T20:21:27.586Z,1.50
2023-11-07T20:23:55.499Z,2.00
2023-11-07T20:26:22.950Z,1.70
2023-11-07T20:28:51.880Z,1.90
2023-11-07T20:31:20.852Z,2.40
2023-11-07T20:33:50.361Z,1.80
2023-11-07T20:36:19.774Z,1.90
2023-11-07T20:38:48.892Z,2.00
2023-11-07T20:41:17.527Z,1.73
2023-11-07T20:43:45.148Z,1.98
2023-11-07T20:48:52.819Z,2.08
2023-11-07T20:51:20.707Z,1.73
2023-11-07T20:53:48.506Z,1.88
2023-11-07T20:56:16.199Z,1.88
2023-11-07T20:58:44.181Z,1.58
2023-11-07T21:01:11.798Z,1.85
2023-11-07T21:03:41.670Z,1.50
2023-11-07T21:06:09.270Z,1.80
2023-11-07T21:08:37.765Z,1.75
2023-11-07T21:11:06.783Z,1.80
2023-11-07T21:13:36.186Z,1.73
2023-11-07T21:16:06.245Z,1.58
2023-11-07T21:18:33.851Z,1.58
2023-11-07T21:21:03.587Z,1.42
2023-11-07T21:23:34.114Z,1.30
2023-11-07T21:26:01.856Z,1.65
2023-11-07T21:28:29.489Z,1.55
2023-11-07T21:30:57.077Z,1.30
2023-11-07T21:33:25.224Z,1.35
2023-11-07T21:35:55.018Z,1.33
2023-11-07T21:38:23.958Z,1.50
2023-11-07T21:40:51.566Z,1.80
2023-11-07T21:43:19.175Z,1.73
2023-11-07T21:45:47.936Z,1.70
2023-11-07T21:48:16.317Z,1.40
2023-11-07T21:50:43.863Z,1.60
2023-11-07T21:53:11.396Z,1.38
2023-11-07T21:55:41.774Z,1.42
2023-11-07T21:58:09.916Z,1.40
2023-11-07T22:00:39.874Z,1.50
2023-11-07T22:03:07.931Z,1.38
2023-11-07T22:05:35.592Z,1.55
2023-11-07T22:08:06.122Z,1.10
2023-11-07T22:10:33.693Z,1.45
2023-11-07T22:13:02.557Z,1.48
2023-11-07T22:15:30.217Z,1.40
2023-11-07T22:17:57.768Z,1.90
2023-11-07T22:20:26.074Z,1.70
2023-11-07T22:22:53.680Z,1.60
2023-11-07T22:25:21.204Z,1.52
2023-11-07T22:27:49.507Z,1.80
2023-11-07T22:30:18.819Z,1.70
2023-11-07T22:32:47.211Z,1.65
2023-11-07T22:35:15.725Z,1.67
2023-11-07T22:37:43.423Z,1.58
2023-11-07T22:40:11.961Z,1.15
2023-11-07T22:42:41.180Z,1.48
2023-11-07T22:45:09.964Z,1.10
2023-11-07T22:47:38.960Z,1.38
2023-11-07T22:50:08.311Z,1.30
2023-11-07T22:52:36.152Z,1.10
2023-11-07T22:55:03.790Z,1.15
2023-11-07T22:57:31.436Z,1.33
2023-11-07T22:59:58.950Z,1.20
2023-11-07T23:02:26.985Z,1.23
2023-11-07T23:04:55.894Z,1.63
2023-11-07T23:07:23.871Z,1.67
2023-11-07T23:09:51.338Z,1.30
2023-11-07T23:12:18.877Z,1.10
2023-11-07T23:14:46.651Z,1.30
2023-11-07T23:17:14.854Z,1.40
2023-11-07T23:19:42.833Z,1.48
2023-11-07T23:22:13.315Z,1.35
2023-11-07T23:24:42.865Z,1.20
2023-11-07T23:27:10.571Z,1.30
2023-11-07T23:29:39.986Z,1.20
2023-11-07T23:32:07.909Z,1.15
2023-11-07T23:34:35.660Z,1.55
2023-11-07T23:37:03.313Z,1.20
2023-11-07T23:39:32.241Z,1.30
2023-11-07T23:41:59.801Z,1.10
2023-11-07T23:44:27.510Z,1.02
2023-11-07T23:46:55.166Z,1.05
2023-11-07T23:49:22.775Z,1.50
2023-11-07T23:51:50.335Z,0.95
2023-11-07T23:54:18.020Z,1.02
2023-11-07T23:56:47.086Z,1.20
2023-11-07T23:59:14.686Z,1.10
